Time;durP1;ratioP1;P1;durP2;ratioP2;P2;SDS_P1;SDS_P2;PMS_P1;PMS_P2;Temp;Humidity;BMP_temperature;BMP_pressure;BME280_temperature;BME280_humidity;BME280_pressure;Samples;Min_cycle;Max_cycle;Signal;HPM_P1;HPM_P2
2022/03/01 00:00:44;;;;;;;6.60;3.95;;;;;;;;;;4976408;28;20015;-75
2022/03/01 00:03:10;;;;;;;7.20;4.50;;;;;;;;;;4974537;28;20027;-75
2022/03/01 00:05:36;;;;;;;6.60;3.58;;;;;;;;;;4991525;28;20023;-75
2022/03/01 00:08:02;;;;;;;6.20;3.88;;;;;;;;;;4994396;28;20512;-75
2022/03/01 00:10:28;;;;;;;4.40;3.38;;;;;;;;;;4994206;28;20053;-74
2022/03/01 00:12:54;;;;;;;5.95;4.05;;;;;;;;;;4995791;28;20119;-74
2022/03/01 00:15:20;;;;;;;5.38;3.70;;;;;;;;;;4995373;28;20041;-74
2022/03/01 00:17:46;;;;;;;4.47;3.47;;;;;;;;;;4995414;28;20034;-74
2022/03/01 00:20:12;;;;;;;4.97;3.50;;;;;;;;;;4995176;28;20026;-75
2022/03/01 00:22:38;;;;;;;5.13;3.55;;;;;;;;;;4995746;28;20073;-75
2022/03/01 00:25:05;;;;;;;5.25;3.70;;;;;;;;;;4995322;28;20019;-75
2022/03/01 00:27:32;;;;;;;5.40;3.67;;;;;;;;;;4995627;28;20084;-72
2022/03/01 00:29:58;;;;;;;5.07;3.83;;;;;;;;;;4996038;28;20027;-72
2022/03/01 00:32:24;;;;;;;5.35;3.85;;;;;;;;;;4993530;28;20081;-72
2022/03/01 00:34:50;;;;;;;6.30;3.72;;;;;;;;;;4994024;28;20026;-72
2022/03/01 00:37:16;;;;;;;7.05;3.92;;;;;;;;;;4995771;28;20105;-72
2022/03/01 00:39:42;;;;;;;6.85;3.80;;;;;;;;;;4995948;28;20029;-72
2022/03/01 00:42:08;;;;;;;5.13;3.95;;;;;;;;;;4988943;28;20030;-73
2022/03/01 00:44:34;;;;;;;6.55;3.33;;;;;;;;;;4975525;28;20055;-73
2022/03/01 00:47:00;;;;;;;4.63;3.30;;;;;;;;;;4975751;28;20073;-73
2022/03/01 00:49:26;;;;;;;6.25;3.80;;;;;;;;;;4974241;28;20031;-73
2022/03/01 00:51:52;;;;;;;6.78;3.60;;;;;;;;;;4975023;28;20092;-73
2022/03/01 00:54:18;;;;;;;7.57;3.70;;;;;;;;;;4988344;28;20066;-74
2022/03/01 00:56:44;;;;;;;5.00;3.55;;;;;;;;;;4994014;28;20037;-72
2022/03/01 00:59:10;;;;;;;6.80;3.70;;;;;;;;;;4995334;28;20030;-72
2022/03/01 01:01:37;;;;;;;5.90;3.55;;;;;;;;;;4993541;28;20034;-72
2022/03/01 01:04:03;;;;;;;4.07;3.30;;;;;;;;;;4992478;28;20106;-72
2022/03/01 01:06:29;;;;;;;6.05;3.60;;;;;;;;;;4974545;28;20235;-72
2022/03/01 01:08:55;;;;;;;4.03;3.08;;;;;;;;;;4975570;28;20059;-72
2022/03/01 01:11:21;;;;;;;5.35;3.25;;;;;;;;;;4975021;28;20410;-72
2022/03/01 01:13:48;;;;;;;4.85;3.72;;;;;;;;;;4975478;28;20058;-72
2022/03/01 01:16:14;;;;;;;6.15;3.53;;;;;;;;;;4975387;28;20102;-72
2022/03/01 01:18:43;;;;;;;5.57;3.20;;;;;;;;;;4975547;28;20031;-73
2022/03/01 01:21:10;;;;;;;5.57;3.40;;;;;;;;;;4975599;28;20078;-73
2022/03/01 01:23:36;;;;;;;4.13;3.30;;;;;;;;;;4975189;28;20027;-74
2022/03/01 01:26:02;;;;;;;4.70;3.13;;;;;;;;;;4974027;28;20549;-74
2022/03/01 01:28:28;;;;;;;4.55;3.40;;;;;;;;;;4975389;28;20406;-74
2022/03/01 01:30:54;;;;;;;5.72;3.47;;;;;;;;;;4975168;28;20027;-72
2022/03/01 01:33:20;;;;;;;5.18;3.25;;;;;;;;;;4974818;28;20038;-72
2022/03/01 01:35:46;;;;;;;5.15;3.28;;;;;;;;;;4974482;28;20037;-72
2022/03/01 01:38:12;;;;;;;5.40;3.47;;;;;;;;;;4974984;28;20041;-72
2022/03/01 01:40:38;;;;;;;5.32;2.90;;;;;;;;;;4974951;28;20023;-72
2022/03/01 01:43:05;;;;;;;5.13;2.60;;;;;;;;;;4988297;28;20023;-72
2022/03/01 01:45:31;;;;;;;5.65;3.28;;;;;;;;;;4994921;28;20073;-72
2022/03/01 01:47:58;;;;;;;4.28;3.08;;;;;;;;;;4994715;28;20030;-72
2022/03/01 01:50:24;;;;;;;4.10;2.50;;;;;;;;;;4992931;28;20058;-74
2022/03/01 01:52:51;;;;;;;4.38;3.20;;;;;;;;;;4992095;28;20030;-74
2022/03/01 01:55:19;;;;;;;4.70;2.75;;;17.90;60.40;;;;;;4974371;28;20517;-74
2022/03/01 01:57:45;;;;;;;3.72;2.63;;;;;;;;;;4974170;28;20038;-75
2022/03/01 02:00:11;;;;;;;3.95;2.92;;;;;;;;;;4972975;28;20027;-75
2022/03/01 02:02:38;;;;;;;4.15;2.40;;;;;;;;;;4974264;28;20038;-74
2022/03/01 02:05:04;;;;;;;3.03;2.60;;;;;;;;;;4985250;28;20037;-75
2022/03/01 02:07:30;;;;;;;3.85;2.53;;;;;;;;;;4993247;28;20490;-74
2022/03/01 02:09:56;;;;;;;5.55;2.65;;;;;;;;;;4993516;28;20468;-75
2022/03/01 02:12:22;;;;;;;5.40;2.70;;;;;;;;;;4992597;28;20035;-75
2022/03/01 02:14:48;;;;;;;3.70;2.55;;;;;;;;;;4993129;28;20037;-74
2022/03/01 02:17:15;;;;;;;3.70;2.70;;;17.80;61.30;;;;;;4993065;28;20034;-74
2022/03/01 02:19:51;;;;;;;3.85;2.55;;;17.80;61.60;;;;;;4993343;28;20030;-75
2022/03/01 02:22:18;;;;;;;3.63;2.63;;;;;;;;;;4992576;28;20101;-75
2022/03/01 02:24:44;;;;;;;3.00;2.50;;;;;;;;;;4993570;28;20018;-75
2022/03/01 02:27:10;;;;;;;4.15;2.70;;;;;;;;;;4992965;28;20027;-75
2022/03/01 02:29:36;;;;;;;5.53;2.80;;;;;;;;;;4983576;28;20389;-74
2022/03/01 02:32:06;;;;;;;3.97;2.50;;;17.90;63.40;;;;;;4977527;28;20370;-75
2022/03/01 02:34:32;;;;;;;3.20;2.22;;;;;;;;;;4959484;28;20046;-75
2022/03/01 02:36:58;;;;;;;3.42;2.40;;;;;;;;;;4993006;28;20532;-75
2022/03/01 02:39:25;;;;;;;4.20;2.55;;;;;;;;;;4985756;28;20513;-75
2022/03/01 02:41:51;;;;;;;3.97;2.45;;;;;;;;;;4976655;28;20041;-75
2022/03/01 02:44:17;;;;;;;3.63;2.50;;;;;;;;;;4992872;28;20031;-75
2022/03/01 02:46:43;;;;;;;3.25;2.28;;;;;;;;;;4993004;28;20076;-73
2022/03/01 02:49:10;;;;;;;3.97;2.28;;;;;;;;;;4976217;28;20031;-73
2022/03/01 02:51:37;;;;;;;3.25;2.40;;;;;;;;;;4973465;28;20031;-73
2022/03/01 02:54:03;;;;;;;3.45;2.50;;;;;;;;;;4974027;28;20045;-73
2022/03/01 02:56:29;;;;;;;3.50;2.63;;;;;;;;;;4972902;28;20680;-73
2022/03/01 02:58:55;;;;;;;3.58;2.55;;;;;;;;;;4973896;28;20038;-73
2022/03/01 03:01:24;;;;;;;3.42;2.47;;;18.10;61.50;;;;;;4973551;28;20050;-73
2022/03/01 03:03:50;;;;;;;2.63;1.90;;;;;;;;;;4975112;28;20031;-73
2022/03/01 03:06:17;;;;;;;3.75;2.60;;;;;;;;;;4975707;28;20029;-73
2022/03/01 03:08:43;;;;;;;3.17;2.35;;;;;;;;;;4973672;28;20089;-73
2022/03/01 03:11:09;;;;;;;3.50;2.50;;;;;;;;;;4972798;28;20127;-73
2022/03/01 03:13:36;;;;;;;3.22;2.33;;;;;;;;;;4973441;28;20030;-73
2022/03/01 03:16:02;;;;;;;3.05;2.20;;;;;;;;;;4973610;28;20027;-73
2022/03/01 03:18:28;;;;;;;3.40;2.40;;;;;;;;;;4973961;28;20038;-73
2022/03/01 03:20:55;;;;;;;3.08;2.47;;;;;;;;;;4974163;28;20486;-73
2022/03/01 03:23:21;;;;;;;3.78;2.42;;;;;;;;;;4973553;28;20038;-73
2022/03/01 03:25:47;;;;;;;2.50;1.83;;;;;;;;;;4974136;28;20483;-73
2022/03/01 03:28:13;;;;;;;4.22;2.50;;;;;;;;;;4973530;28;20038;-73
2022/03/01 03:30:39;;;;;;;3.67;2.20;;;;;;;;;;4973948;28;20035;-73
2022/03/01 03:33:05;;;;;;;3.05;2.20;;;;;;;;;;4973787;28;20526;-72
2022/03/01 03:35:32;;;;;;;3.08;2.05;;;;;;;;;;4972886;28;20514;-72
2022/03/01 03:37:58;;;;;;;3.17;2.30;;;;;;;;;;4973034;28;20023;-72
2022/03/01 03:40:24;;;;;;;4.03;2.53;;;;;;;;;;4990685;28;20437;-72
2022/03/01 03:42:51;;;;;;;2.72;2.00;;;;;;;;;;4983815;28;20386;-72
2022/03/01 03:45:17;;;;;;;3.33;1.92;;;;;;;;;;4976929;28;20582;-72
2022/03/01 03:47:43;;;;;;;2.47;2.10;;;;;;;;;;4976313;28;20042;-72
2022/03/01 03:50:10;;;;;;;2.47;1.90;;;;;;;;;;4976846;28;20058;-72
2022/03/01 03:52:36;;;;;;;3.97;2.38;;;;;;;;;;4976680;28;20494;-72
2022/03/01 03:55:05;;;;;;;3.35;2.33;;;;;;;;;;4976534;28;20508;-72
2022/03/01 03:57:32;;;;;;;3.03;2.20;;;;;;;;;;4976252;28;20038;-72
2022/03/01 03:59:58;;;;;;;3.45;2.20;;;;;;;;;;4976030;28;20022;-72
2022/03/01 04:02:24;;;;;;;2.80;1.90;;;;;;;;;;4975727;28;20030;-72
2022/03/01 04:04:50;;;;;;;3.55;2.22;;;;;;;;;;4985447;28;20026;-72
2022/03/01 04:07:17;;;;;;;4.25;2.08;;;;;;;;;;4995767;28;20396;-72
2022/03/01 04:09:43;;;;;;;4.15;2.33;;;;;;;;;;4995297;28;20105;-72
2022/03/01 04:12:10;;;;;;;2.78;2.05;;;;;;;;;;4995364;28;20027;-72
2022/03/01 04:14:36;;;;;;;2.47;2.17;;;;;;;;;;4995446;28;20029;-72
2022/03/01 04:17:02;;;;;;;3.25;1.88;;;;;;;;;;4995503;28;20030;-72
2022/03/01 04:19:28;;;;;;;2.95;1.77;;;;;;;;;;4995702;28;20026;-73
2022/03/01 04:21:55;;;;;;;4.82;2.55;;;;;;;;;;4994472;28;20030;-73
2022/03/01 04:24:21;;;;;;;3.55;2.00;;;;;;;;;;4996095;28;20023;-73
2022/03/01 04:26:47;;;;;;;2.63;2.00;;;;;;;;;;4996027;28;20022;-73
2022/03/01 04:29:13;;;;;;;2.80;1.90;;;;;;;;;;4994567;28;20083;-73
2022/03/01 04:31:39;;;;;;;2.80;1.95;;;;;;;;;;4995600;28;20497;-73
2022/03/01 04:34:05;;;;;;;4.05;2.10;;;;;;;;;;4995428;28;20030;-73
2022/03/01 04:36:32;;;;;;;2.92;1.80;;;;;;;;;;4996353;28;20022;-73
2022/03/01 04:38:58;;;;;;;2.83;2.03;;;;;;;;;;4984888;28;20027;-75
2022/03/01 04:41:24;;;;;;;2.60;1.80;;;;;;;;;;4955861;29;20116;-75
2022/03/01 04:43:50;;;;;;;2.92;2.17;;;;;;;;;;4970871;28;20086;-72
2022/03/01 04:46:18;;;;;;;3.50;1.73;;;;;;;;;;4956437;29;20031;-72
2022/03/01 04:48:44;;;;;;;2.78;2.00;;;;;;;;;;4955867;29;20045;-72
2022/03/01 04:51:10;;;;;;;3.05;1.70;;;;;;;;;;4956164;29;20035;-72
2022/03/01 04:53:36;;;;;;;3.17;2.03;;;;;;;;;;4954513;28;20031;-72
2022/03/01 04:56:02;;;;;;;2.92;1.90;;;;;;;;;;4956200;29;20058;-72
2022/03/01 04:58:28;;;;;;;2.38;1.88;;;;;;;;;;4955645;29;20056;-72
2022/03/01 05:00:55;;;;;;;3.63;1.88;;;;;;;;;;4956182;29;20106;-72
2022/03/01 05:03:21;;;;;;;3.72;1.95;;;;;;;;;;4955941;28;20026;-75
2022/03/01 05:05:47;;;;;;;2.65;1.70;;;;;;;;;;4989521;28;20122;-75
2022/03/01 05:08:14;;;;;;;2.67;1.63;;;;;;;;;;4994453;28;20046;-75
2022/03/01 05:10:40;;;;;;;2.83;2.03;;;;;;;;;;4994771;28;20061;-75
2022/03/01 05:13:06;;;;;;;2.65;1.77;;;;;;;;;;4985197;28;20033;-72
2022/03/01 05:15:32;;;;;;;2.90;2.00;;;;;;;;;;4994340;28;20089;-72
2022/03/01 05:17:59;;;;;;;3.50;1.77;;;;;;;;;;4992722;28;20031;-72
2022/03/01 05:20:26;;;;;;;3.70;2.03;;;;;;;;;;4992918;28;20026;-72
2022/03/01 05:22:53;;;;;;;3.35;2.10;;;;;;;;;;4994294;28;20029;-72
2022/03/01 05:25:19;;;;;;;2.78;1.75;;;;;;;;;;4994241;28;20026;-72
2022/03/01 05:27:46;;;;;;;3.20;1.90;;;;;;;;;;4994040;28;20026;-72
2022/03/01 05:30:14;;;;;;;3.10;2.00;;;18.50;62.00;;;;;;4994188;28;20030;-72
2022/03/01 05:32:44;;;;;;;2.17;1.42;;;17.90;61.40;;;;;;4994040;28;20026;-72
2022/03/01 05:35:11;;;;;;;3.10;1.88;;;;;;;;;;4993955;28;20076;-72
2022/03/01 05:37:37;;;;;;;2.15;1.70;;;;;;;;;;4994285;28;20024;-72
2022/03/01 05:40:05;;;;;;;2.53;1.63;;;20.80;64.20;;;;;;4978783;28;20035;-72
2022/03/01 05:42:32;;;;;;;2.58;1.52;;;;;;;;;;4982976;28;20030;-73
2022/03/01 05:44:59;;;;;;;1.88;1.67;;;;;;;;;;4993583;28;20034;-73
2022/03/01 05:47:26;;;;;;;2.30;1.77;;;;;;;;;;4993871;28;20034;-73
2022/03/01 05:49:52;;;;;;;2.80;1.90;;;;;;;;;;4993484;28;20026;-73
2022/03/01 05:52:18;;;;;;;2.75;1.85;;;;;;;;;;4993259;28;20030;-73
2022/03/01 05:54:44;;;;;;;3.25;1.35;;;;;;;;;;4993562;28;20448;-73
2022/03/01 05:57:10;;;;;;;2.92;1.83;;;;;;;;;;4992414;28;20409;-73
2022/03/01 05:59:36;;;;;;;3.65;1.73;;;;;;;;;;4993536;28;20456;-75
2022/03/01 06:02:03;;;;;;;2.50;1.70;;;;;;;;;;4993349;28;20449;-75
2022/03/01 06:04:29;;;;;;;2.55;1.88;;;;;;;;;;4986898;28;20023;-75
2022/03/01 06:06:55;;;;;;;2.40;1.67;;;;;;;;;;4974214;28;20049;-75
2022/03/01 06:09:21;;;;;;;2.72;1.52;;;;;;;;;;4974070;28;20047;-75
2022/03/01 06:11:47;;;;;;;2.42;1.30;;;;;;;;;;4973805;28;20472;-75
2022/03/01 06:14:13;;;;;;;2.72;1.70;;;;;;;;;;4972577;28;20391;-75
2022/03/01 06:16:39;;;;;;;3.38;2.08;;;;;;;;;;4974105;28;20031;-75
2022/03/01 06:19:05;;;;;;;2.38;1.52;;;;;;;;;;4973849;28;20482;-75
2022/03/01 06:21:32;;;;;;;2.70;1.55;;;;;;;;;;4973279;28;20053;-75
2022/03/01 06:24:00;;;;;;;2.75;1.70;;;;;;;;;;4973882;28;20022;-75
2022/03/01 06:26:26;;;;;;;3.78;2.03;;;;;;;;;;4973711;28;20058;-75
2022/03/01 06:28:52;;;;;;;2.92;1.85;;;;;;;;;;4973739;28;20038;-75
2022/03/01 06:31:18;;;;;;;2.58;1.90;;;;;;;;;;4973806;28;20493;-75
2022/03/01 06:33:44;;;;;;;2.17;1.55;;;;;;;;;;4972450;28;20027;-75
2022/03/01 06:36:11;;;;;;;2.50;1.60;;;;;;;;;;4973775;28;20135;-75
2022/03/01 06:38:37;;;;;;;2.30;1.77;;;;;;;;;;4977111;28;20034;-75
2022/03/01 06:41:03;;;;;;;3.03;1.52;;;;;;;;;;4993137;28;20019;-75
2022/03/01 06:43:29;;;;;;;1.95;1.42;;;;;;;;;;4975940;28;20051;-75
2022/03/01 06:45:55;;;;;;;2.50;1.67;;;;;;;;;;4973700;28;20023;-75
2022/03/01 06:48:21;;;;;;;2.60;1.50;;;;;;;;;;4974267;28;20051;-75
2022/03/01 06:50:47;;;;;;;2.60;1.75;;;;;;;;;;4972116;28;20030;-75
2022/03/01 06:53:14;;;;;;;2.90;1.88;;;;;;;;;;4973258;28;20031;-75
2022/03/01 06:55:40;;;;;;;2.40;1.50;;;;;;;;;;4973491;28;20034;-75
2022/03/01 06:58:06;;;;;;;3.58;1.75;;;;;;;;;;4973647;28;20031;-75
2022/03/01 07:00:33;;;;;;;1.77;1.30;;;;;;;;;;4973430;28;20029;-75
2022/03/01 07:02:59;;;;;;;2.05;1.63;;;;;;;;;;4973798;28;20026;-75
2022/03/01 07:05:25;;;;;;;2.00;1.50;;;;;;;;;;4986827;28;20030;-75
2022/03/01 07:07:51;;;;;;;2.67;1.33;;;;;;;;;;4991320;28;20069;-75
2022/03/01 07:10:17;;;;;;;2.00;1.38;;;;;;;;;;4992789;28;20034;-75
2022/03/01 07:12:44;;;;;;;1.75;1.25;;;;;;;;;;4992863;28;20436;-75
2022/03/01 07:15:10;;;;;;;2.70;1.58;;;;;;;;;;4993077;28;20512;-75
2022/03/01 07:17:36;;;;;;;2.72;1.50;;;;;;;;;;4995884;28;20073;-75
2022/03/01 07:20:04;;;;;;;3.45;1.67;;;;;;;;;;4996343;28;20030;-75
2022/03/01 07:22:30;;;;;;;2.90;1.58;;;;;;;;;;4996656;28;20547;-75
2022/03/01 07:24:56;;;;;;;2.00;1.70;;;;;;;;;;4996429;28;20037;-75
2022/03/01 07:27:22;;;;;;;2.95;1.45;;;;;;;;;;4996187;28;20022;-75
2022/03/01 07:29:48;;;;;;;1.90;1.48;;;;;;;;;;4996269;28;20492;-75
2022/03/01 07:32:14;;;;;;;1.42;1.23;;;;;;;;;;4995917;28;20112;-75
2022/03/01 07:34:42;;;;;;;2.92;1.65;;;;;;;;;;4996447;28;20026;-73
2022/03/01 07:37:09;;;;;;;2.30;1.45;;;;;;;;;;4996930;28;20026;-73
2022/03/01 07:39:35;;;;;;;1.92;1.52;;;;;;;;;;4981635;28;20135;-73
2022/03/01 07:42:01;;;;;;;1.70;1.30;;;;;;;;;;4967148;28;20433;-73
2022/03/01 07:44:27;;;;;;;2.85;1.60;;;;;;;;;;4997081;28;20027;-73
2022/03/01 07:46:53;;;;;;;2.40;1.65;;;;;;;;;;4996470;28;20494;-73
2022/03/01 07:49:19;;;;;;;1.88;1.38;;;;;;;;;;4996024;28;20062;-73
2022/03/01 07:51:45;;;;;;;1.98;1.48;;;;;;;;;;4996293;28;20037;-73
2022/03/01 07:54:11;;;;;;;2.17;1.50;;;;;;;;;;4970805;28;20517;-73
2022/03/01 07:56:39;;;;;;;2.95;1.60;;;;;;;;;;4955925;28;20453;-73
2022/03/01 07:59:05;;;;;;;3.38;1.88;;;;;;;;;;4968596;28;20387;-73
2022/03/01 08:01:31;;;;;;;3.97;1.58;;;;;;;;;;4956435;29;20035;-74
2022/03/01 08:03:57;;;;;;;2.70;1.45;;;;;;;;;;4980449;28;20387;-72
2022/03/01 08:06:24;;;;;;;3.63;1.60;;;;;;;;;;4963085;28;20390;-72
2022/03/01 08:08:50;;;;;;;3.80;1.77;;;;;;;;;;4963984;28;20061;-73
2022/03/01 08:11:16;;;;;;;3.97;1.50;;;;;;;;;;4974965;28;20474;-74
2022/03/01 08:13:43;;;;;;;2.85;1.55;;;;;;;;;;4959917;28;20104;-75
2022/03/01 08:16:10;;;;;;;2.95;1.52;;;;;;;;;;5016977;28;20053;-76
2022/03/01 08:18:36;;;;;;;4.28;1.88;;;;;;;;;;5019864;28;20796;-72
2022/03/01 08:21:02;;;;;;;6.28;1.80;;;;;;;;;;5024259;28;20026;-78
2022/03/01 08:23:29;;;;;;;4.00;2.10;;;;;;;;;;5016701;28;20026;-77
2022/03/01 08:25:55;;;;;;;6.68;1.90;;;;;;;;;;5014982;28;20025;-79
2022/03/01 08:28:21;;;;;;;3.00;1.63;;;;;;;;;;5043785;28;20477;-78
2022/03/01 08:30:48;;;;;;;6.22;1.88;;;;;;;;;;4998616;28;20499;-80
2022/03/01 08:33:18;;;;;;;4.18;1.70;;;;;;;;;;5011648;28;20033;-79
2022/03/01 08:35:48;;;;;;;3.70;2.53;;;18.40;59.20;;;;;;5011993;28;20026;-81
2022/03/01 08:38:14;;;;;;;3.92;1.40;;;;;;;;;;5019499;28;20676;-79
2022/03/01 08:40:40;;;;;;;3.03;2.08;;;;;;;;;;5044353;28;20021;-77
2022/03/01 08:43:07;;;;;;;4.93;1.98;;;;;;;;;;5020361;28;20029;-79
2022/03/01 08:45:34;;;;;;;5.35;1.75;;;;;;;;;;5012193;28;20543;-76
2022/03/01 08:48:00;;;;;;;5.60;1.88;;;;;;;;;;5015435;28;20025;-76
2022/03/01 08:50:26;;;;;;;7.63;2.00;;;;;;;;;;5026180;28;20121;-77
2022/03/01 08:52:52;;;;;;;4.72;1.63;;;;;;;;;;5019994;28;20033;-76
2022/03/01 08:55:18;;;;;;;4.15;1.40;;;;;;;;;;5026537;28;20397;-77
2022/03/01 08:57:45;;;;;;;3.35;1.52;;;;;;;;;;5020521;28;20127;-76
2022/03/01 09:00:13;;;;;;;3.47;1.95;;;23.40;61.20;;;;;;5016429;28;20026;-76
2022/03/01 09:02:40;;;;;;;1.77;1.52;;;;;;;;;;5009867;28;20033;-76
2022/03/01 09:05:06;;;;;;;3.65;1.58;;;;;;;;;;5014020;28;20026;-76
2022/03/01 09:07:37;;;;;;;3.70;1.83;;;20.60;60.00;;;;;;4991654;28;20030;-77
2022/03/01 09:10:05;;;;;;;4.40;1.63;;;18.70;58.70;;;;;;5011361;28;20042;-76
2022/03/01 09:12:32;;;;;;;3.80;2.00;;;;;;;;;;4992900;28;20401;-76
2022/03/01 09:14:58;;;;;;;6.15;1.67;;;;;;;;;;5010424;28;20104;-78
2022/03/01 09:17:24;;;;;;;2.38;1.45;;;;;;;;;;5010360;28;20101;-76
2022/03/01 09:19:51;;;;;;;3.67;1.60;;;;;;;;;;5007822;28;20040;-76
2022/03/01 09:22:20;;;;;;;4.25;1.92;;;20.60;59.80;;;;;;5013327;28;20014;-74
2022/03/01 09:24:46;;;;;;;2.60;1.67;;;;;;;;;;5009207;28;20108;-75
2022/03/01 09:27:12;;;;;;;4.47;2.00;;;;;;;;;;5019939;28;20059;-75
2022/03/01 09:29:40;;;;;;;4.07;1.80;;;;;;;;;;5030598;28;20076;-74
2022/03/01 09:32:06;;;;;;;4.15;1.85;;;;;;;;;;5026370;28;20026;-76
2022/03/01 09:34:32;;;;;;;4.00;2.20;;;;;;;;;;5024479;28;20079;-77
2022/03/01 09:36:59;;;;;;;3.65;2.15;;;;;;;;;;5028519;28;20120;-76
2022/03/01 09:39:25;;;;;;;6.68;2.20;;;;;;;;;;5017093;28;20029;-75
2022/03/01 09:41:53;;;;;;;5.50;2.05;;;;;;;;;;5016502;28;20072;-75
2022/03/01 09:44:19;;;;;;;7.88;2.30;;;;;;;;;;5011872;28;20032;-75
2022/03/01 09:46:46;;;;;;;5.30;2.47;;;;;;;;;;5010699;28;20025;-72
2022/03/01 09:49:13;;;;;;;4.63;2.30;;;;;;;;;;5009140;28;20037;-74
2022/03/01 09:51:40;;;;;;;3.92;1.90;;;;;;;;;;5024599;28;20404;-77
2022/03/01 09:54:07;;;;;;;4.95;2.20;;;;;;;;;;5021773;28;20025;-75
2022/03/01 09:56:33;;;;;;;7.68;2.17;;;;;;;;;;5015304;28;20033;-76
2022/03/01 09:59:00;;;;;;;13.50;2.58;;;;;;;;;;4994563;28;20425;-75
2022/03/01 10:01:27;;;;;;;5.95;2.33;;;;;;;;;;4991387;28;20115;-73
2022/03/01 10:03:53;;;;;;;8.00;2.35;;;;;;;;;;5008346;28;20052;-75
2022/03/01 10:06:22;;;;;;;6.50;3.00;;;23.80;62.00;;;;;;5022451;28;20029;-74
2022/03/01 10:08:55;;;;;;;5.65;2.10;;;21.30;60.00;;;;;;5012153;28;20050;-71
2022/03/01 10:11:21;;;;;;;11.65;2.58;;;;;;;;;;5008325;28;20042;-72
2022/03/01 10:13:48;;;;;;;5.50;2.60;;;;;;;;;;5008026;28;20025;-72
2022/03/01 10:16:18;;;;;;;11.30;2.53;;;20.70;60.60;;;;;;5023838;28;20553;-72
2022/03/01 10:18:52;;;;;;;6.75;2.30;;;20.10;59.20;;;;;;5018206;28;20030;-76
2022/03/01 10:21:19;;;;;;;5.72;1.90;;;;;;;;;;5007860;28;20071;-75
2022/03/01 10:23:52;;;;;;;7.20;2.40;;;23.50;61.50;;;;;;5020922;28;20021;-75
2022/03/01 10:26:24;;;;;;;10.93;2.70;;;21.20;58.90;;;;;;5017844;28;20029;-74
2022/03/01 10:28:54;;;;;;;10.15;2.60;;;24.30;62.10;;;;;;5012068;28;20034;-75
2022/03/01 10:31:26;;;;;;;5.53;2.10;;;21.20;59.50;;;;;;4991316;28;20501;-76
2022/03/01 10:34:12;;;;;;;7.22;2.35;;;24.60;62.10;;;;;;5012253;28;20057;-78
2022/03/01 10:36:44;;;;;;;6.22;2.47;;;21.20;57.80;;;;;;5013065;28;20088;-77
2022/03/01 10:39:27;;;;;;;10.30;3.03;;;18.90;58.80;;;;;;5027601;28;20036;-79
2022/03/01 10:41:53;;;;;;;7.43;2.42;;;;;;;;;;4992623;28;20052;-78
2022/03/01 10:44:28;;;;;;;8.68;2.55;;;24.40;62.50;;;;;;5028033;28;20035;-80
2022/03/01 10:46:59;;;;;;;7.78;2.08;;;20.70;58.80;;;;;;5002455;28;20034;-74
2022/03/01 10:49:33;;;;;;;10.45;2.60;;;18.30;59.40;;;;;;4994944;28;20026;-75
2022/03/01 10:52:05;;;;;;;7.28;2.53;;;19.30;58.90;;;;;;5017636;28;20038;-76
2022/03/01 10:54:41;;;;;;;6.53;2.58;;;19.50;59.30;;;;;;5015532;28;20025;-76
2022/03/01 10:57:09;;;;;;;9.18;2.42;;;19.90;59.50;;;;;;5025237;28;20055;-76
2022/03/01 10:59:37;;;;;;;7.07;2.50;;;24.60;63.80;;;;;;5025271;28;20021;-77
2022/03/01 11:02:04;;;;;;;8.32;2.72;;;;;;;;;;5001523;28;20550;-78
2022/03/01 11:04:30;;;;;;;5.80;3.03;;;;;;;;;;5001015;28;20030;-72
2022/03/01 11:07:03;;;;;;;6.30;2.55;;;19.50;60.30;;;;;;4999174;28;20450;-77
2022/03/01 11:09:31;;;;;;;8.60;2.50;;;20.70;60.60;;;;;;5011850;28;20125;-77
2022/03/01 11:12:00;;;;;;;5.43;2.30;;;21.20;61.50;;;;;;5017337;28;20195;-77
2022/03/01 11:14:41;;;;;;;7.25;2.47;;;18.60;60.10;;;;;;5013298;28;20373;-75
2022/03/01 11:17:22;;;;;;;6.07;2.55;;;19.10;59.30;;;;;;5002647;28;20571;-78
2022/03/01 11:20:07;;;;;;;7.28;2.47;;;21.20;58.80;;;;;;5014196;28;20492;-77
2022/03/01 11:22:44;;;;;;;5.47;2.55;;;20.20;58.80;;;;;;5031799;28;20028;-77
2022/03/01 11:25:20;;;;;;;8.57;2.75;;;19.90;58.40;;;;;;5026329;28;20025;-75
2022/03/01 11:27:48;;;;;;;8.55;3.10;;;24.00;61.00;;;;;;5029946;28;20033;-74
2022/03/01 11:30:15;;;;;;;7.00;2.92;;;;;;;;;;5019508;28;20104;-79
2022/03/01 11:32:46;;;;;;;11.35;3.03;;;18.40;59.70;;;;;;5004012;28;20084;-78
2022/03/01 11:35:22;;;;;;;7.57;2.60;;;23.40;61.80;;;;;;5009001;28;20452;-73
2022/03/01 11:37:58;;;;;;;10.77;3.17;;;20.20;59.00;;;;;;5009298;28;20030;-74
2022/03/01 11:40:25;;;;;;;7.32;2.70;;;;;;;;;;5020330;28;20045;-77
2022/03/01 11:42:51;;;;;;;7.47;2.90;;;;;;;;;;5027897;28;20029;-76
2022/03/01 11:45:18;;;;;;;8.10;2.42;;;;;;;;;;5017876;28;20053;-74
2022/03/01 11:47:44;;;;;;;8.38;2.42;;;;;;;;;;5020479;28;20576;-75
2022/03/01 11:50:20;;;;;;;8.52;2.65;;;18.10;60.00;;;;;;5012247;28;20104;-73
2022/03/01 11:53:06;;;;;;;8.18;2.63;;;21.00;59.90;;;;;;5030086;28;20109;-72
2022/03/01 11:55:44;;;;;;;10.25;3.40;;;19.00;60.00;;;;;;5011892;28;20033;-71
2022/03/01 11:58:11;;;;;;;8.52;2.78;;;;;;;;;;4994230;28;20500;-72
2022/03/01 12:00:39;;;;;;;8.10;2.83;;;;;;;;;;5016478;28;20030;-72
2022/03/01 12:03:10;;;;;;;9.80;3.45;;;18.90;60.20;;;;;;5023907;28;20068;-73
2022/03/01 12:05:37;;;;;;;13.52;4.05;;;;;;;;;;5017842;28;20026;-73
2022/03/01 12:08:08;;;;;;;8.60;4.05;;;19.60;60.90;;;;;;5017176;28;20726;-72
2022/03/01 12:10:35;;;;;;;11.07;4.70;;;;;;;;;;5000843;28;20033;-73
2022/03/01 12:13:06;;;;;;;10.23;5.35;;;20.90;62.80;;;;;;5012654;28;20033;-72
2022/03/01 12:15:33;;;;;;;14.95;5.50;;;;;;;;;;5015983;28;20057;-72
2022/03/01 12:18:13;;;;;;;13.90;5.70;;;25.30;64.20;;;;;;5013095;28;20033;-72
2022/03/01 12:20:47;;;;;;;14.20;7.53;;;21.00;59.80;;;;;;5012029;28;20040;-72
2022/03/01 12:23:40;;;;;;;12.77;7.43;;;17.90;61.50;;;;;;5012593;28;20105;-72
2022/03/01 12:26:09;;;;;;;14.87;8.60;;;21.10;59.30;;;;;;5009996;28;20095;-73
2022/03/01 12:28:44;;;;;;;15.85;8.65;;;19.00;61.60;;;;;;5022651;28;20029;-74
2022/03/01 12:31:23;;;;;;;15.00;9.10;;;20.50;60.60;;;;;;5032990;28;20763;-72
2022/03/01 12:34:04;;;;;;;18.23;10.45;;;20.00;59.80;;;;;;5021587;28;20045;-74
2022/03/01 12:36:36;;;;;;;17.58;10.65;;;21.50;60.50;;;;;;5013813;28;20056;-74
2022/03/01 12:39:12;;;;;;;17.70;11.27;;;18.00;61.30;;;;;;5020266;28;20030;-73
2022/03/01 12:41:38;;;;;;;22.58;13.75;;;;;;;;;;5031622;28;20021;-77
2022/03/01 12:44:07;;;;;;;22.90;13.55;;;17.70;60.90;;;;;;5032889;28;20112;-76
2022/03/01 12:46:33;;;;;;;25.92;14.02;;;;;;;;;;5028964;28;20025;-77
2022/03/01 12:49:00;;;;;;;26.52;13.63;;;;;;;;;;5011723;28;20069;-76
2022/03/01 12:51:28;;;;;;;23.10;13.32;;;;;;;;;;5009472;28;20022;-76
2022/03/01 12:53:59;;;;;;;26.20;14.30;;;19.40;61.00;;;;;;5021939;28;20026;-75
2022/03/01 12:56:33;;;;;;;26.55;14.80;;;21.10;60.90;;;;;;5015386;28;20087;-76
2022/03/01 12:59:20;;;;;;;21.77;14.68;;;21.70;60.30;;;;;;5029612;28;20041;-75
2022/03/01 13:01:47;;;;;;;18.98;13.15;;;;;;;;;;5024726;28;20037;-77
2022/03/01 13:04:13;;;;;;;23.33;14.13;;;;;;;;;;5001025;28;20453;-76
2022/03/01 13:06:40;;;;;;;25.90;14.43;;;;;;;;;;5009219;28;20469;-77
2022/03/01 13:09:07;;;;;;;24.63;14.27;;;;;;;;;;5009839;28;20046;-78
2022/03/01 13:11:33;;;;;;;20.02;13.20;;;;;;;;;;5028561;28;20554;-77
2022/03/01 13:14:13;;;;;;;24.55;14.80;;;20.60;61.40;;;;;;5009243;28;20124;-76
2022/03/01 13:16:42;;;;;;;25.08;14.82;;;20.10;59.00;;;;;;5028571;28;20531;-77
2022/03/01 13:19:11;;;;;;;27.00;14.95;;;20.50;61.70;;;;;;5008165;28;20022;-74
2022/03/01 13:22:07;;;;;;;27.75;13.38;;;19.50;60.80;;;;;;4998189;28;20670;-75
2022/03/01 13:24:39;;;;;;;24.02;13.15;;;20.40;58.80;;;;;;5009904;28;20738;-75
2022/03/01 13:27:07;;;;;;;23.17;12.80;;;19.80;60.10;;;;;;5030012;28;20481;-73
2022/03/01 13:29:38;;;;;;;23.10;13.13;;;20.00;61.90;;;;;;5009340;28;20030;-78
2022/03/01 13:32:16;;;;;;;18.52;12.07;;;18.90;60.80;;;;;;5009209;28;20409;-77
2022/03/01 13:34:45;;;;;;;21.48;12.57;;;21.00;60.10;;;;;;4990541;28;20026;-76
2022/03/01 13:37:16;;;;;;;25.73;14.15;;;19.10;61.30;;;;;;5009774;28;20050;-76
2022/03/01 13:39:48;;;;;;;24.70;12.65;;;21.40;62.30;;;;;;5007651;28;20943;-74
2022/03/01 13:42:15;;;;;;;22.90;12.27;;;;;;;;;;5008961;28;20164;-76
2022/03/01 13:44:44;;;;;;;19.58;11.30;;;;;;;;;;5008993;28;20072;-76
2022/03/01 13:47:13;;;;;;;21.33;12.35;;;20.60;61.70;;;;;;5008880;28;20109;-77
2022/03/01 13:49:43;;;;;;;18.90;12.48;;;22.30;62.80;;;;;;5020293;28;20420;-77
2022/03/01 13:52:10;;;;;;;21.73;11.70;;;;;;;;;;5028567;28;20921;-77
2022/03/01 13:54:36;;;;;;;20.88;12.63;;;;;;;;;;5010456;28;20055;-75
2022/03/01 13:57:03;;;;;;;17.90;11.60;;;;;;;;;;5009026;28;20485;-76
2022/03/01 13:59:29;;;;;;;20.83;11.48;;;;;;;;;;4990803;28;20034;-75
2022/03/01 14:01:55;;;;;;;19.92;11.57;;;;;;;;;;5006581;28;20152;-74
2022/03/01 14:04:22;;;;;;;18.48;12.07;;;;;;;;;;4995109;28;20013;-75
2022/03/01 14:06:51;;;;;;;15.23;10.40;;;21.30;62.10;;;;;;5029272;28;20520;-76
2022/03/01 14:09:17;;;;;;;17.08;11.10;;;;;;;;;;5027219;28;20053;-75
2022/03/01 14:11:59;;;;;;;17.10;11.25;;;18.20;60.70;;;;;;5009822;28;20029;-76
2022/03/01 14:14:26;;;;;;;17.55;11.10;;;;;;;;;;5026904;28;20563;-75